sensor_id;sensor_type;location;lat;lon;timestamp;pressure;altitude;pressure_sealevel;temperature;humidity
57644;BME280;43474;46.510;6.686;2023-03-16T00:02:05;96657.16;;;2.30;88.78
57644;BME280;43474;46.510;6.686;2023-03-16T00:04:31;96648.31;;;2.17;91.06
57644;BME280;43474;46.510;6.686;2023-03-16T00:07:01;96649.22;;;2.09;93.75
57644;BME280;43474;46.510;6.686;2023-03-16T00:09:27;96632.56;;;1.87;95.14
57644;BME280;43474;46.510;6.686;2023-03-16T00:12:02;96632.47;;;1.80;93.99
57644;BME280;43474;46.510;6.686;2023-03-16T00:14:28;96649.03;;;1.88;95.40
57644;BME280;43474;46.510;6.686;2023-03-16T00:16:54;96642.72;;;1.82;97.41
57644;BME280;43474;46.510;6.686;2023-03-16T00:19:19;96642.91;;;1.80;96.04
57644;BME280;43474;46.510;6.686;2023-03-16T00:21:50;96660.78;;;1.92;94.99
57644;BME280;43474;46.510;6.686;2023-03-16T00:24:17;96641.16;;;1.96;92.71
57644;BME280;43474;46.510;6.686;2023-03-16T00:26:46;96655.09;;;1.88;95.46
57644;BME280;43474;46.510;6.686;2023-03-16T00:29:12;96648.66;;;1.76;95.11
57644;BME280;43474;46.510;6.686;2023-03-16T00:31:39;96657.31;;;1.76;96.55
57644;BME280;43474;46.510;6.686;2023-03-16T00:34:11;96657.50;;;1.75;97.45
57644;BME280;43474;46.510;6.686;2023-03-16T00:36:36;96635.06;;;1.58;98.31
57644;BME280;43474;46.510;6.686;2023-03-16T00:39:06;96661.31;;;1.64;99.63
57644;BME280;43474;46.510;6.686;2023-03-16T00:41:31;96660.91;;;1.52;100.00
57644;BME280;43474;46.510;6.686;2023-03-16T00:44:05;96663.75;;;1.43;100.00
57644;BME280;43474;46.510;6.686;2023-03-16T00:46:31;96651.31;;;1.22;100.00
57644;BME280;43474;46.510;6.686;2023-03-16T00:48:57;96663.13;;;1.10;100.00
57644;BME280;43474;46.510;6.686;2023-03-16T00:51:22;96657.75;;;1.03;100.00
57644;BME280;43474;46.510;6.686;2023-03-16T00:53:48;96673.56;;;1.10;100.00
57644;BME280;43474;46.510;6.686;2023-03-16T00:56:15;96659.78;;;0.93;100.00
57644;BME280;43474;46.510;6.686;2023-03-16T00:58:41;96650.00;;;0.95;100.00
57644;BME280;43474;46.510;6.686;2023-03-16T01:01:13;96645.06;;;1.00;100.00
57644;BME280;43474;46.510;6.686;2023-03-16T01:03:39;96658.53;;;1.12;100.00
57644;BME280;43474;46.510;6.686;2023-03-16T01:06:13;96649.38;;;1.16;100.00
57644;BME280;43474;46.510;6.686;2023-03-16T01:08:42;96650.09;;;1.33;100.00
57644;BME280;43474;46.510;6.686;2023-03-16T01:11:13;96641.28;;;1.34;100.00
57644;BME280;43474;46.510;6.686;2023-03-16T01:13:41;96626.97;;;1.29;100.00
57644;BME280;43474;46.510;6.686;2023-03-16T01:16:07;96645.41;;;1.51;100.00
57644;BME280;43474;46.510;6.686;2023-03-16T01:18:33;96632.88;;;1.46;100.00
57644;BME280;43474;46.510;6.686;2023-03-16T01:21:00;96640.31;;;1.58;100.00
57644;BME280;43474;46.510;6.686;2023-03-16T01:23:26;96633.63;;;1.55;100.00
57644;BME280;43474;46.510;6.686;2023-03-16T01:25:54;96644.13;;;1.47;100.00
57644;BME280;43474;46.510;6.686;2023-03-16T01:28:24;96633.69;;;1.47;100.00
57644;BME280;43474;46.510;6.686;2023-03-16T01:30:51;96635.91;;;1.35;100.00
57644;BME280;43474;46.510;6.686;2023-03-16T01:33:22;96633.44;;;1.34;100.00
57644;BME280;43474;46.510;6.686;2023-03-16T01:35:59;96630.81;;;1.34;100.00
57644;BME280;43474;46.510;6.686;2023-03-16T01:38:26;96622.66;;;1.37;100.00
57644;BME280;43474;46.510;6.686;2023-03-16T01:40:53;96629.31;;;1.39;100.00
57644;BME280;43474;46.510;6.686;2023-03-16T01:43:21;96626.19;;;1.44;100.00
57644;BME280;43474;46.510;6.686;2023-03-16T01:54:03;96602.72;;;1.21;100.00
57644;BME280;43474;46.510;6.686;2023-03-16T01:56:36;96597.63;;;1.19;100.00
57644;BME280;43474;46.510;6.686;2023-03-16T01:59:08;96606.75;;;1.23;100.00
57644;BME280;43474;46.510;6.686;2023-03-16T02:01:35;96593.69;;;1.23;100.00
57644;BME280;43474;46.510;6.686;2023-03-16T02:04:16;96599.72;;;1.24;100.00
57644;BME280;43474;46.510;6.686;2023-03-16T02:06:44;96592.66;;;1.10;100.00
57644;BME280;43474;46.510;6.686;2023-03-16T02:09:10;96583.25;;;1.00;100.00
57644;BME280;43474;46.510;6.686;2023-03-16T02:11:36;96583.59;;;0.97;100.00
57644;BME280;43474;46.510;6.686;2023-03-16T02:14:07;96587.66;;;1.00;100.00
57644;BME280;43474;46.510;6.686;2023-03-16T02:16:33;96581.88;;;0.90;100.00
57644;BME280;43474;46.510;6.686;2023-03-16T02:18:59;96581.50;;;0.93;100.00
57644;BME280;43474;46.510;6.686;2023-03-16T02:21:54;96581.38;;;1.09;100.00
57644;BME280;43474;46.510;6.686;2023-03-16T02:24:23;96587.59;;;1.08;100.00
57644;BME280;43474;46.510;6.686;2023-03-16T02:26:54;96583.19;;;1.09;100.00
57644;BME280;43474;46.510;6.686;2023-03-16T02:32:16;96581.25;;;1.11;100.00
57644;BME280;43474;46.510;6.686;2023-03-16T02:34:42;96582.22;;;1.10;100.00
57644;BME280;43474;46.510;6.686;2023-03-16T02:37:08;96580.75;;;1.07;100.00
57644;BME280;43474;46.510;6.686;2023-03-16T02:39:35;96578.06;;;0.92;100.00
57644;BME280;43474;46.510;6.686;2023-03-16T02:42:00;96572.16;;;0.98;100.00
57644;BME280;43474;46.510;6.686;2023-03-16T02:44:31;96566.53;;;0.87;100.00
57644;BME280;43474;46.510;6.686;2023-03-16T02:47:05;96568.22;;;1.02;100.00
57644;BME280;43474;46.510;6.686;2023-03-16T02:49:35;96572.00;;;1.00;100.00
57644;BME280;43474;46.510;6.686;2023-03-16T02:52:03;96580.28;;;1.03;100.00
57644;BME280;43474;46.510;6.686;2023-03-16T02:54:29;96569.63;;;0.90;100.00
57644;BME280;43474;46.510;6.686;2023-03-16T02:56:55;96574.03;;;0.90;100.00
57644;BME280;43474;46.510;6.686;2023-03-16T02:59:21;96575.00;;;0.89;100.00
57644;BME280;43474;46.510;6.686;2023-03-16T03:01:46;96581.50;;;0.93;100.00
57644;BME280;43474;46.510;6.686;2023-03-16T03:04:12;96582.78;;;0.97;100.00
57644;BME280;43474;46.510;6.686;2023-03-16T03:06:37;96580.19;;;0.97;100.00
57644;BME280;43474;46.510;6.686;2023-03-16T03:09:04;96580.19;;;0.97;100.00
57644;BME280;43474;46.510;6.686;2023-03-16T03:11:29;96562.81;;;0.81;100.00
57644;BME280;43474;46.510;6.686;2023-03-16T03:13:56;96565.66;;;0.94;100.00
57644;BME280;43474;46.510;6.686;2023-03-16T03:16:21;96582.16;;;0.95;100.00
57644;BME280;43474;46.510;6.686;2023-03-16T03:18:48;96583.13;;;0.94;100.00
57644;BME280;43474;46.510;6.686;2023-03-16T03:21:13;96573.41;;;0.80;100.00
57644;BME280;43474;46.510;6.686;2023-03-16T03:23:39;96586.94;;;0.83;100.00
57644;BME280;43474;46.510;6.686;2023-03-16T03:26:05;96562.22;;;0.71;100.00
57644;BME280;43474;46.510;6.686;2023-03-16T03:28:31;96574.97;;;0.66;100.00
57644;BME280;43474;46.510;6.686;2023-03-16T03:30:59;96575.97;;;0.65;100.00
57644;BME280;43474;46.510;6.686;2023-03-16T03:33:26;96574.19;;;0.57;100.00
57644;BME280;43474;46.510;6.686;2023-03-16T03:35:56;96583.00;;;0.56;100.00
57644;BME280;43474;46.510;6.686;2023-03-16T03:38:24;96587.31;;;0.72;100.00
57644;BME280;43474;46.510;6.686;2023-03-16T03:40:53;96590.25;;;0.69;100.00
57644;BME280;43474;46.510;6.686;2023-03-16T03:43:19;96576.28;;;0.62;100.00
57644;BME280;43474;46.510;6.686;2023-03-16T03:45:45;96587.03;;;0.67;100.00
57644;BME280;43474;46.510;6.686;2023-03-16T03:48:11;96585.03;;;0.69;100.00
57644;BME280;43474;46.510;6.686;2023-03-16T03:50:37;96592.91;;;0.61;100.00
57644;BME280;43474;46.510;6.686;2023-03-16T03:53:03;96579.56;;;0.56;100.00
57644;BME280;43474;46.510;6.686;2023-03-16T03:55:29;96586.06;;;0.60;100.00
57644;BME280;43474;46.510;6.686;2023-03-16T03:57:58;96579.28;;;0.50;100.00
57644;BME280;43474;46.510;6.686;2023-03-16T04:00:23;96584.94;;;0.54;100.00
57644;BME280;43474;46.510;6.686;2023-03-16T04:02:49;96571.97;;;0.38;100.00
57644;BME280;43474;46.510;6.686;2023-03-16T04:05:15;96596.84;;;0.57;100.00
57644;BME280;43474;46.510;6.686;2023-03-16T04:07:41;96575.69;;;0.51;100.00
57644;BME280;43474;46.510;6.686;2023-03-16T04:10:07;96591.44;;;0.66;100.00
57644;BME280;43474;46.510;6.686;2023-03-16T04:12:33;96571.41;;;0.59;100.00
57644;BME280;43474;46.510;6.686;2023-03-16T04:14:58;96583.31;;;0.61;100.00
57644;BME280;43474;46.510;6.686;2023-03-16T04:17:24;96569.34;;;0.46;100.00
57644;BME280;43474;46.510;6.686;2023-03-16T04:19:49;96584.09;;;0.62;100.00
57644;BME280;43474;46.510;6.686;2023-03-16T04:22:17;96595.78;;;0.74;100.00
57644;BME280;43474;46.510;6.686;2023-03-16T04:24:42;96593.00;;;0.75;100.00
57644;BME280;43474;46.510;6.686;2023-03-16T04:27:09;96587.03;;;0.67;100.00
57644;BME280;43474;46.510;6.686;2023-03-16T04:29:37;96604.41;;;0.74;100.00
57644;BME280;43474;46.510;6.686;2023-03-16T04:32:05;96606.09;;;0.67;100.00
57644;BME280;43474;46.510;6.686;2023-03-16T04:34:30;96574.69;;;0.52;100.00
57644;BME280;43474;46.510;6.686;2023-03-16T04:36:56;96610.25;;;0.85;100.00
57644;BME280;43474;46.510;6.686;2023-03-16T04:39:21;96602.78;;;0.73;100.00
57644;BME280;43474;46.510;6.686;2023-03-16T04:41:48;96589.66;;;0.59;100.00
57644;BME280;43474;46.510;6.686;2023-03-16T04:44:14;96604.78;;;0.63;100.00
57644;BME280;43474;46.510;6.686;2023-03-16T04:46:39;96600.44;;;0.56;100.00
57644;BME280;43474;46.510;6.686;2023-03-16T04:49:05;96598.53;;;0.41;100.00
57644;BME280;43474;46.510;6.686;2023-03-16T04:51:35;96606.97;;;0.51;100.00
57644;BME280;43474;46.510;6.686;2023-03-16T04:54:02;96601.94;;;0.42;100.00
57644;BME280;43474;46.510;6.686;2023-03-16T04:56:28;96596.25;;;0.38;100.00
57644;BME280;43474;46.510;6.686;2023-03-16T04:58:54;96613.56;;;0.31;100.00
57644;BME280;43474;46.510;6.686;2023-03-16T05:01:21;96609.78;;;0.42;100.00
57644;BME280;43474;46.510;6.686;2023-03-16T05:03:47;96602.94;;;0.41;100.00
57644;BME280;43474;46.510;6.686;2023-03-16T05:06:14;96603.44;;;0.36;100.00
57644;BME280;43474;46.510;6.686;2023-03-16T05:08:40;96615.97;;;0.41;100.00
57644;BME280;43474;46.510;6.686;2023-03-16T05:11:05;96603.06;;;0.47;100.00
57644;BME280;43474;46.510;6.686;2023-03-16T05:13:31;96608.88;;;0.66;100.00
57644;BME280;43474;46.510;6.686;2023-03-16T05:15:57;96598.78;;;0.55;100.00
57644;BME280;43474;46.510;6.686;2023-03-16T05:18:22;96593.28;;;0.49;100.00
57644;BME280;43474;46.510;6.686;2023-03-16T05:20:50;96585.81;;;0.38;100.00
57644;BME280;43474;46.510;6.686;2023-03-16T05:23:16;96599.03;;;0.45;100.00
57644;BME280;43474;46.510;6.686;2023-03-16T05:25:42;96603.56;;;0.51;100.00
57644;BME280;43474;46.510;6.686;2023-03-16T05:28:07;96601.41;;;0.55;100.00
57644;BME280;43474;46.510;6.686;2023-03-16T05:30:33;96594.63;;;0.45;100.00
57644;BME280;43474;46.510;6.686;2023-03-16T05:32:58;96575.75;;;0.35;100.00
57644;BME280;43474;46.510;6.686;2023-03-16T05:35:24;96601.56;;;0.53;100.00
57644;BME280;43474;46.510;6.686;2023-03-16T05:37:50;96583.69;;;0.42;100.00
57644;BME280;43474;46.510;6.686;2023-03-16T05:40:16;96599.03;;;0.45;100.00
57644;BME280;43474;46.510;6.686;2023-03-16T05:42:45;96590.72;;;0.33;100.00
57644;BME280;43474;46.510;6.686;2023-03-16T05:45:13;96587.94;;;0.35;100.00
57644;BME280;43474;46.510;6.686;2023-03-16T05:47:39;96603.25;;;0.46;100.00
57644;BME280;43474;46.510;6.686;2023-03-16T05:50:05;96596.53;;;0.51;100.00
57644;BME280;43474;46.510;6.686;2023-03-16T05:52:36;96571.50;;;0.34;100.00
57644;BME280;43474;46.510;6.686;2023-03-16T05:55:04;96597.22;;;0.45;100.00
57644;BME280;43474;46.510;6.686;2023-03-16T05:57:31;96587.84;;;0.59;100.00
57644;BME280;43474;46.510;6.686;2023-03-16T05:59:57;96574.00;;;0.59;100.00
57644;BME280;43474;46.510;6.686;2023-03-16T06:02:22;96593.03;;;0.67;100.00
57644;BME280;43474;46.510;6.686;2023-03-16T06:04:48;96604.78;;;0.71;100.00
57644;BME280;43474;46.510;6.686;2023-03-16T06:07:13;96588.47;;;0.69;100.00
57644;BME280;43474;46.510;6.686;2023-03-16T06:09:39;96565.84;;;0.62;100.00
57644;BME280;43474;46.510;6.686;2023-03-16T06:12:04;96588.72;;;0.83;100.00
57644;BME280;43474;46.510;6.686;2023-03-16T06:14:30;96592.59;;;0.95;100.00
57644;BME280;43474;46.510;6.686;2023-03-16T06:16:56;96608.16;;;1.11;100.00
57644;BME280;43474;46.510;6.686;2023-03-16T06:19:21;96594.22;;;1.19;100.00
57644;BME280;43474;46.510;6.686;2023-03-16T06:21:47;96597.63;;;1.19;100.00
57644;BME280;43474;46.510;6.686;2023-03-16T06:24:12;96590.94;;;1.25;100.00
57644;BME280;43474;46.510;6.686;2023-03-16T06:26:38;96573.81;;;1.22;100.00
57644;BME280;43474;46.510;6.686;2023-03-16T06:29:04;96596.13;;;1.48;100.00
57644;BME280;43474;46.510;6.686;2023-03-16T06:31:30;96569.44;;;1.38;100.00
57644;BME280;43474;46.510;6.686;2023-03-16T06:33:56;96581.03;;;1.58;100.00
57644;BME280;43474;46.510;6.686;2023-03-16T06:36:21;96572.81;;;1.69;100.00
57644;BME280;43474;46.510;6.686;2023-03-16T06:38:47;96570.38;;;1.83;100.00
57644;BME280;43474;46.510;6.686;2023-03-16T06:41:13;96580.47;;;1.86;100.00
57644;BME280;43474;46.510;6.686;2023-03-16T06:43:38;96579.16;;;1.90;100.00
57644;BME280;43474;46.510;6.686;2023-03-16T06:46:04;96590.84;;;2.08;100.00
57644;BME280;43474;46.510;6.686;2023-03-16T06:48:30;96604.66;;;2.17;100.00
57644;BME280;43474;46.510;6.686;2023-03-16T06:50:55;96589.91;;;2.24;100.00
57644;BME280;43474;46.510;6.686;2023-03-16T06:53:21;96590.59;;;2.33;100.00
57644;BME280;43474;46.510;6.686;2023-03-16T06:55:47;96588.19;;;2.46;100.00
57644;BME280;43474;46.510;6.686;2023-03-16T06:58:13;96597.34;;;2.72;100.00
57644;BME280;43474;46.510;6.686;2023-03-16T07:00:38;96573.19;;;2.70;100.00
57644;BME280;43474;46.510;6.686;2023-03-16T07:03:04;96601.38;;;3.04;100.00
57644;BME280;43474;46.510;6.686;2023-03-16T07:05:30;96602.13;;;3.19;100.00
57644;BME280;43474;46.510;6.686;2023-03-16T07:07:56;96592.84;;;3.17;100.00
57644;BME280;43474;46.510;6.686;2023-03-16T07:10:21;96599.94;;;3.23;100.00
57644;BME280;43474;46.510;6.686;2023-03-16T07:12:47;96593.53;;;3.25;100.00
57644;BME280;43474;46.510;6.686;2023-03-16T07:15:14;96587.09;;;3.28;100.00
57644;BME280;43474;46.510;6.686;2023-03-16T07:17:41;96584.38;;;3.36;100.00
57644;BME280;43474;46.510;6.686;2023-03-16T07:20:07;96589.28;;;3.46;100.00
57644;BME280;43474;46.510;6.686;2023-03-16T07:22:38;96595.06;;;3.62;100.00
57644;BME280;43474;46.510;6.686;2023-03-16T07:25:05;96575.03;;;3.76;99.43
57644;BME280;43474;46.510;6.686;2023-03-16T07:27:31;96574.84;;;4.06;100.00
57644;BME280;43474;46.510;6.686;2023-03-16T07:29:58;96574.53;;;4.57;100.00
57644;BME280;43474;46.510;6.686;2023-03-16T07:32:25;96576.28;;;5.52;90.24
57644;BME280;43474;46.510;6.686;2023-03-16T07:34:50;96581.53;;;5.52;86.31
57644;BME280;43474;46.510;6.686;2023-03-16T07:37:16;96590.41;;;5.38;89.41
57644;BME280;43474;46.510;6.686;2023-03-16T07:39:41;96587.78;;;5.44;86.54
57644;BME280;43474;46.510;6.686;2023-03-16T07:42:08;96577.63;;;6.54;91.28
57644;BME280;43474;46.510;6.686;2023-03-16T07:44:33;96571.88;;;7.54;85.45
57644;BME280;43474;46.510;6.686;2023-03-16T07:46:59;96575.63;;;8.46;80.13
57644;BME280;43474;46.510;6.686;2023-03-16T07:49:26;96575.00;;;8.99;74.11
57644;BME280;43474;46.510;6.686;2023-03-16T07:51:52;96562.44;;;9.43;66.86
57644;BME280;43474;46.510;6.686;2023-03-16T07:54:18;96574.19;;;10.12;68.22
57644;BME280;43474;46.510;6.686;2023-03-16T07:56:43;96569.84;;;10.29;61.21
57644;BME280;43474;46.510;6.686;2023-03-16T07:59:09;96571.63;;;10.64;60.48
57644;BME280;43474;46.510;6.686;2023-03-16T08:01:36;96580.88;;;10.61;64.93
57644;BME280;43474;46.510;6.686;2023-03-16T08:04:02;96584.53;;;10.72;58.70
57644;BME280;43474;46.510;6.686;2023-03-16T08:06:28;96574.06;;;11.18;57.71
57644;BME280;43474;46.510;6.686;2023-03-16T08:08:53;96590.06;;;11.23;56.28
57644;BME280;43474;46.510;6.686;2023-03-16T08:11:19;96600.56;;;11.18;56.91
57644;BME280;43474;46.510;6.686;2023-03-16T08:13:52;96597.03;;;11.41;57.25
57644;BME280;43474;46.510;6.686;2023-03-16T08:16:26;96588.38;;;11.45;54.80
57644;BME280;43474;46.510;6.686;2023-03-16T08:18:55;96596.44;;;11.50;52.15
57644;BME280;43474;46.510;6.686;2023-03-16T08:21:21;96585.44;;;11.30;53.90
57644;BME280;43474;46.510;6.686;2023-03-16T08:23:48;96593.25;;;11.65;50.24
57644;BME280;43474;46.510;6.686;2023-03-16T08:26:15;96570.69;;;11.51;51.85
57644;BME280;43474;46.510;6.686;2023-03-16T08:28:45;96581.66;;;11.71;50.62
57644;BME280;43474;46.510;6.686;2023-03-16T08:31:12;96589.16;;;11.74;50.17
57644;BME280;43474;46.510;6.686;2023-03-16T08:33:43;96572.03;;;11.36;50.04
57644;BME280;43474;46.510;6.686;2023-03-16T08:36:10;96580.44;;;11.62;52.26
57644;BME280;43474;46.510;6.686;2023-03-16T08:38:38;96585.81;;;11.50;50.29
57644;BME280;43474;46.510;6.686;2023-03-16T08:41:07;96561.16;;;11.67;51.08
57644;BME280;43474;46.510;6.686;2023-03-16T08:43:34;96589.19;;;11.91;51.08
57644;BME280;43474;46.510;6.686;2023-03-16T08:46:01;96585.28;;;11.65;51.33
57644;BME280;43474;46.510;6.686;2023-03-16T08:48:28;96581.66;;;11.54;52.52
57644;BME280;43474;46.510;6.686;2023-03-16T08:50:54;96575.38;;;11.60;52.10
57644;BME280;43474;46.510;6.686;2023-03-16T08:53:20;96575.63;;;11.59;52.38
57644;BME280;43474;46.510;6.686;2023-03-16T08:55:46;96568.28;;;11.21;50.52
57644;BME280;43474;46.510;6.686;2023-03-16T08:58:12;96567.72;;;11.47;51.86
57644;BME280;43474;46.510;6.686;2023-03-16T09:00:38;96558.50;;;11.38;52.52
57644;BME280;43474;46.510;6.686;2023-03-16T09:03:05;96554.75;;;11.05;53.42
57644;BME280;43474;46.510;6.686;2023-03-16T09:05:31;96572.44;;;11.17;53.70
57644;BME280;43474;46.510;6.686;2023-03-16T09:07:57;96566.13;;;10.66;55.86
57644;BME280;43474;46.510;6.686;2023-03-16T09:10:24;96568.84;;;10.94;54.59
57644;BME280;43474;46.510;6.686;2023-03-16T09:12:52;96573.25;;;11.17;60.02
57644;BME280;43474;46.510;6.686;2023-03-16T09:15:19;96560.22;;;11.16;57.23
57644;BME280;43474;46.510;6.686;2023-03-16T09:17:46;96566.28;;;11.28;57.64
57644;BME280;43474;46.510;6.686;2023-03-16T09:20:13;96544.41;;;11.66;58.29
57644;BME280;43474;46.510;6.686;2023-03-16T09:22:40;96579.66;;;11.78;54.45
57644;BME280;43474;46.510;6.686;2023-03-16T09:25:06;96569.59;;;11.06;53.30
57644;BME280;43474;46.510;6.686;2023-03-16T09:27:33;96558.28;;;10.71;56.21
57644;BME280;43474;46.510;6.686;2023-03-16T09:30:02;96573.19;;;11.00;56.96
57644;BME280;43474;46.510;6.686;2023-03-16T09:32:29;96561.91;;;10.93;56.39
57644;BME280;43474;46.510;6.686;2023-03-16T09:34:55;96546.25;;;10.92;55.83
57644;BME280;43474;46.510;6.686;2023-03-16T09:37:21;96564.25;;;10.90;59.62
57644;BME280;43474;46.510;6.686;2023-03-16T09:39:48;96546.06;;;10.70;56.24
57644;BME280;43474;46.510;6.686;2023-03-16T09:42:26;96552.94;;;10.82;56.86
57644;BME280;43474;46.510;6.686;2023-03-16T09:45:17;96544.22;;;11.10;60.08
57644;BME280;43474;46.510;6.686;2023-03-16T09:47:49;96543.41;;;11.10;57.85
57644;BME280;43474;46.510;6.686;2023-03-16T09:50:22;96550.06;;;10.84;57.46
57644;BME280;43474;46.510;6.686;2023-03-16T09:53:00;96534.72;;;10.86;59.73
57644;BME280;43474;46.510;6.686;2023-03-16T09:55:31;96535.41;;;11.22;58.12
57644;BME280;43474;46.510;6.686;2023-03-16T09:57:59;96538.72;;;11.00;58.57
57644;BME280;43474;46.510;6.686;2023-03-16T10:00:37;96514.44;;;10.92;59.55
57644;BME280;43474;46.510;6.686;2023-03-16T10:03:30;96538.97;;;11.27;58.71
57644;BME280;43474;46.510;6.686;2023-03-16T10:06:00;96534.41;;;11.39;59.94
57644;BME280;43474;46.510;6.686;2023-03-16T10:08:38;96530.22;;;11.44;61.17
57644;BME280;43474;46.510;6.686;2023-03-16T10:16:48;96528.06;;;11.41;61.02
57644;BME280;43474;46.510;6.686;2023-03-16T10:19:41;96537.00;;;11.68;59.42
57644;BME280;43474;46.510;6.686;2023-03-16T10:22:35;96531.69;;;11.51;59.59
57644;BME280;43474;46.510;6.686;2023-03-16T10:27:52;96525.16;;;11.13;62.07
57644;BME280;43474;46.510;6.686;2023-03-16T10:30:31;96531.59;;;11.46;60.69
57644;BME280;43474;46.510;6.686;2023-03-16T10:35:48;96527.31;;;12.07;59.60
57644;BME280;43474;46.510;6.686;2023-03-16T10:38:41;96526.25;;;11.75;61.18
57644;BME280;43474;46.510;6.686;2023-03-16T10:43:43;96533.03;;;11.37;63.24
57644;BME280;43474;46.510;6.686;2023-03-16T10:46:10;96516.84;;;11.22;61.97
57644;BME280;43474;46.510;6.686;2023-03-16T10:48:37;96544.34;;;11.78;61.69
57644;BME280;43474;46.510;6.686;2023-03-16T10:51:13;96535.63;;;11.94;63.82
57644;BME280;43474;46.510;6.686;2023-03-16T10:53:41;96524.06;;;12.22;60.25
57644;BME280;43474;46.510;6.686;2023-03-16T10:56:21;96534.47;;;12.24;57.46
57644;BME280;43474;46.510;6.686;2023-03-16T10:58:48;96531.22;;;12.22;59.21
57644;BME280;43474;46.510;6.686;2023-03-16T11:01:23;96544.53;;;11.88;58.78
57644;BME280;43474;46.510;6.686;2023-03-16T11:03:58;96530.91;;;12.18;58.76
57644;BME280;43474;46.510;6.686;2023-03-16T11:06:30;96535.28;;;12.07;56.92
57644;BME280;43474;46.510;6.686;2023-03-16T11:09:09;96536.91;;;12.08;58.50
57644;BME280;43474;46.510;6.686;2023-03-16T11:11:37;96512.09;;;12.20;55.53
57644;BME280;43474;46.510;6.686;2023-03-16T11:14:10;96530.81;;;12.68;59.21
57644;BME280;43474;46.510;6.686;2023-03-16T11:16:45;96522.13;;;12.56;57.44
57644;BME280;43474;46.510;6.686;2023-03-16T11:22:04;96532.88;;;12.83;57.97
57644;BME280;43474;46.510;6.686;2023-03-16T11:27:32;96498.72;;;12.75;56.88
57644;BME280;43474;46.510;6.686;2023-03-16T11:32:50;96517.94;;;12.38;51.86
57644;BME280;43474;46.510;6.686;2023-03-16T11:35:19;96530.34;;;12.16;53.40
57644;BME280;43474;46.510;6.686;2023-03-16T11:40:57;96501.56;;;12.68;55.35
57644;BME280;43474;46.510;6.686;2023-03-16T11:43:52;96497.34;;;12.51;55.29
57644;BME280;43474;46.510;6.686;2023-03-16T11:46:22;96520.31;;;12.79;52.18
57644;BME280;43474;46.510;6.686;2023-03-16T11:54:58;96525.38;;;12.80;49.64
57644;BME280;43474;46.510;6.686;2023-03-16T12:05:31;96499.94;;;12.46;48.50
57644;BME280;43474;46.510;6.686;2023-03-16T12:16:01;96491.38;;;12.22;45.95
57644;BME280;43474;46.510;6.686;2023-03-16T12:18:44;96492.66;;;12.58;50.70
57644;BME280;43474;46.510;6.686;2023-03-16T12:21:17;96499.47;;;12.71;50.59
57644;BME280;43474;46.510;6.686;2023-03-16T12:23:53;96490.66;;;12.92;52.35
57644;BME280;43474;46.510;6.686;2023-03-16T12:26:23;96474.22;;;12.95;48.48
57644;BME280;43474;46.510;6.686;2023-03-16T12:28:51;96489.16;;;13.01;45.65
57644;BME280;43474;46.510;6.686;2023-03-16T12:31:29;96487.88;;;13.04;48.28
57644;BME280;43474;46.510;6.686;2023-03-16T12:36:50;96490.53;;;12.82;50.30
57644;BME280;43474;46.510;6.686;2023-03-16T12:42:25;96479.00;;;12.49;48.43
57644;BME280;43474;46.510;6.686;2023-03-16T12:45:03;96449.69;;;12.44;50.06
57644;BME280;43474;46.510;6.686;2023-03-16T12:48:02;96459.72;;;12.59;49.44
57644;BME280;43474;46.510;6.686;2023-03-16T12:50:31;96462.13;;;12.38;50.11
57644;BME280;43474;46.510;6.686;2023-03-16T12:52:57;96458.09;;;12.58;45.26
57644;BME280;43474;46.510;6.686;2023-03-16T12:55:42;96451.91;;;12.30;45.01
57644;BME280;43474;46.510;6.686;2023-03-16T12:58:09;96445.41;;;12.43;45.07
57644;BME280;43474;46.510;6.686;2023-03-16T13:00:39;96459.03;;;12.68;44.21
57644;BME280;43474;46.510;6.686;2023-03-16T13:03:12;96452.13;;;12.73;45.85
57644;BME280;43474;46.510;6.686;2023-03-16T13:05:50;96454.44;;;13.13;45.60
57644;BME280;43474;46.510;6.686;2023-03-16T13:08:19;96416.59;;;12.57;43.77
57644;BME280;43474;46.510;6.686;2023-03-16T13:11:04;96449.06;;;13.08;42.79
57644;BME280;43474;46.510;6.686;2023-03-16T13:13:31;96447.94;;;13.26;41.62
57644;BME280;43474;46.510;6.686;2023-03-16T13:16:07;96458.41;;;13.10;46.43
57644;BME280;43474;46.510;6.686;2023-03-16T13:18:37;96448.41;;;12.96;45.32
57644;BME280;43474;46.510;6.686;2023-03-16T13:21:21;96432.34;;;13.12;45.91
57644;BME280;43474;46.510;6.686;2023-03-16T13:23:55;96415.19;;;13.25;44.16
57644;BME280;43474;46.510;6.686;2023-03-16T13:26:38;96430.22;;;13.41;43.95
57644;BME280;43474;46.510;6.686;2023-03-16T13:31:40;96421.63;;;13.66;46.70
57644;BME280;43474;46.510;6.686;2023-03-16T13:34:12;96416.66;;;13.80;45.38
57644;BME280;43474;46.510;6.686;2023-03-16T13:36:39;96427.00;;;13.71;45.43
57644;BME280;43474;46.510;6.686;2023-03-16T13:39:18;96437.47;;;13.83;45.61
57644;BME280;43474;46.510;6.686;2023-03-16T13:44:24;96430.41;;;13.67;47.48
57644;BME280;43474;46.510;6.686;2023-03-16T13:46:50;96421.81;;;13.55;47.23
57644;BME280;43474;46.510;6.686;2023-03-16T13:49:17;96415.13;;;13.52;48.47
57644;BME280;43474;46.510;6.686;2023-03-16T13:51:43;96413.75;;;13.44;46.48
57644;BME280;43474;46.510;6.686;2023-03-16T13:54:25;96417.38;;;13.28;48.76
57644;BME280;43474;46.510;6.686;2023-03-16T13:56:58;96429.44;;;13.14;51.38
57644;BME280;43474;46.510;6.686;2023-03-16T13:59:24;96421.28;;;12.93;51.55
57644;BME280;43474;46.510;6.686;2023-03-16T14:01:55;96428.44;;;12.93;50.05
57644;BME280;43474;46.510;6.686;2023-03-16T14:04:26;96429.56;;;13.24;53.04
57644;BME280;43474;46.510;6.686;2023-03-16T14:06:59;96425.13;;;13.08;52.96
57644;BME280;43474;46.510;6.686;2023-03-16T14:09:34;96409.25;;;12.91;53.97
57644;BME280;43474;46.510;6.686;2023-03-16T14:12:00;96408.91;;;12.82;53.29
57644;BME280;43474;46.510;6.686;2023-03-16T14:14:35;96402.06;;;12.91;55.44
57644;BME280;43474;46.510;6.686;2023-03-16T14:17:13;96393.19;;;12.81;54.49
57644;BME280;43474;46.510;6.686;2023-03-16T14:19:49;96393.91;;;12.98;51.71